sensor_id;sensor_type;location;lat;lon;timestamp;P1;durP1;ratioP1;P2;durP2;ratioP2
55222;SDS011;41090;48.632;12.428;2023-05-07T00:01:57;4.83;;;3.53;;
55222;SDS011;41090;48.632;12.428;2023-05-07T00:04:23;3.97;;;3.57;;
55222;SDS011;41090;48.632;12.428;2023-05-07T00:06:49;4.33;;;3.83;;
55222;SDS011;41090;48.632;12.428;2023-05-07T00:09:15;6.33;;;3.70;;
55222;SDS011;41090;48.632;12.428;2023-05-07T00:11:41;4.50;;;3.67;;
55222;SDS011;41090;48.632;12.428;2023-05-07T00:14:06;3.70;;;3.30;;
55222;SDS011;41090;48.632;12.428;2023-05-07T00:16:32;3.93;;;3.63;;
55222;SDS011;41090;48.632;12.428;2023-05-07T00:18:58;3.47;;;3.17;;
55222;SDS011;41090;48.632;12.428;2023-05-07T00:21:23;3.70;;;3.10;;
55222;SDS011;41090;48.632;12.428;2023-05-07T00:23:52;4.13;;;3.20;;
55222;SDS011;41090;48.632;12.428;2023-05-07T00:26:17;4.60;;;3.50;;
55222;SDS011;41090;48.632;12.428;2023-05-07T00:28:42;4.33;;;3.93;;
55222;SDS011;41090;48.632;12.428;2023-05-07T00:31:09;4.90;;;4.13;;
55222;SDS011;41090;48.632;12.428;2023-05-07T00:33:34;4.53;;;3.87;;
55222;SDS011;41090;48.632;12.428;2023-05-07T00:36:01;5.03;;;3.87;;
55222;SDS011;41090;48.632;12.428;2023-05-07T00:38:27;3.60;;;3.27;;
55222;SDS011;41090;48.632;12.428;2023-05-07T00:40:52;4.50;;;4.10;;
55222;SDS011;41090;48.632;12.428;2023-05-07T00:43:19;5.83;;;4.57;;
55222;SDS011;41090;48.632;12.428;2023-05-07T00:45:45;3.80;;;3.50;;
55222;SDS011;41090;48.632;12.428;2023-05-07T00:48:10;5.53;;;4.43;;
55222;SDS011;41090;48.632;12.428;2023-05-07T00:50:36;4.73;;;4.30;;
55222;SDS011;41090;48.632;12.428;2023-05-07T00:53:01;4.30;;;3.90;;
55222;SDS011;41090;48.632;12.428;2023-05-07T00:55:27;8.20;;;4.70;;
55222;SDS011;41090;48.632;12.428;2023-05-07T00:57:53;6.33;;;5.40;;
55222;SDS011;41090;48.632;12.428;2023-05-07T01:00:18;6.37;;;5.10;;
55222;SDS011;41090;48.632;12.428;2023-05-07T01:02:43;5.23;;;4.70;;
55222;SDS011;41090;48.632;12.428;2023-05-07T01:05:11;6.47;;;4.53;;
55222;SDS011;41090;48.632;12.428;2023-05-07T01:07:37;5.50;;;4.53;;
55222;SDS011;41090;48.632;12.428;2023-05-07T01:12:32;5.33;;;4.37;;
55222;SDS011;41090;48.632;12.428;2023-05-07T01:14:59;6.03;;;4.20;;
55222;SDS011;41090;48.632;12.428;2023-05-07T01:17:24;4.93;;;3.90;;
55222;SDS011;41090;48.632;12.428;2023-05-07T01:19:50;5.37;;;4.20;;
55222;SDS011;41090;48.632;12.428;2023-05-07T01:25:01;4.50;;;4.10;;
55222;SDS011;41090;48.632;12.428;2023-05-07T01:27:27;5.43;;;3.93;;
55222;SDS011;41090;48.632;12.428;2023-05-07T01:29:52;7.90;;;4.33;;
55222;SDS011;41090;48.632;12.428;2023-05-07T01:34:56;4.60;;;4.20;;
55222;SDS011;41090;48.632;12.428;2023-05-07T01:37:22;5.90;;;4.40;;
55222;SDS011;41090;48.632;12.428;2023-05-07T01:39:48;6.70;;;4.07;;
55222;SDS011;41090;48.632;12.428;2023-05-07T01:42:15;4.50;;;4.10;;
55222;SDS011;41090;48.632;12.428;2023-05-07T01:44:41;5.27;;;3.80;;
55222;SDS011;41090;48.632;12.428;2023-05-07T01:47:06;5.27;;;3.60;;
55222;SDS011;41090;48.632;12.428;2023-05-07T01:49:31;5.17;;;4.47;;
55222;SDS011;41090;48.632;12.428;2023-05-07T01:51:57;4.77;;;4.23;;
55222;SDS011;41090;48.632;12.428;2023-05-07T01:54:26;5.27;;;4.00;;
55222;SDS011;41090;48.632;12.428;2023-05-07T01:56:55;5.03;;;4.53;;
55222;SDS011;41090;48.632;12.428;2023-05-07T01:59:21;5.03;;;4.00;;
55222;SDS011;41090;48.632;12.428;2023-05-07T02:01:46;3.80;;;3.50;;
55222;SDS011;41090;48.632;12.428;2023-05-07T02:04:12;6.00;;;4.50;;
55222;SDS011;41090;48.632;12.428;2023-05-07T02:06:37;4.47;;;3.50;;
55222;SDS011;41090;48.632;12.428;2023-05-07T02:09:03;4.30;;;3.90;;
55222;SDS011;41090;48.632;12.428;2023-05-07T02:14:18;4.70;;;4.20;;
55222;SDS011;41090;48.632;12.428;2023-05-07T02:16:45;4.50;;;3.67;;
55222;SDS011;41090;48.632;12.428;2023-05-07T02:19:10;6.07;;;3.67;;
55222;SDS011;41090;48.632;12.428;2023-05-07T02:21:35;4.60;;;4.10;;
55222;SDS011;41090;48.632;12.428;2023-05-07T02:24:00;4.07;;;3.63;;
55222;SDS011;41090;48.632;12.428;2023-05-07T02:26:27;6.00;;;4.33;;
55222;SDS011;41090;48.632;12.428;2023-05-07T02:28:52;4.60;;;4.17;;
55222;SDS011;41090;48.632;12.428;2023-05-07T02:31:18;4.23;;;3.83;;
55222;SDS011;41090;48.632;12.428;2023-05-07T02:33:43;4.00;;;3.70;;
55222;SDS011;41090;48.632;12.428;2023-05-07T02:36:10;6.13;;;3.90;;
55222;SDS011;41090;48.632;12.428;2023-05-07T02:38:36;7.63;;;3.77;;
55222;SDS011;41090;48.632;12.428;2023-05-07T02:41:01;6.53;;;4.00;;
55222;SDS011;41090;48.632;12.428;2023-05-07T02:43:27;4.83;;;3.60;;
55222;SDS011;41090;48.632;12.428;2023-05-07T02:46:05;3.73;;;3.43;;
55222;SDS011;41090;48.632;12.428;2023-05-07T02:48:30;4.10;;;3.70;;
55222;SDS011;41090;48.632;12.428;2023-05-07T02:50:56;4.00;;;3.70;;
55222;SDS011;41090;48.632;12.428;2023-05-07T02:53:21;5.23;;;4.23;;
55222;SDS011;41090;48.632;12.428;2023-05-07T02:55:47;6.20;;;3.90;;
55222;SDS011;41090;48.632;12.428;2023-05-07T02:58:12;5.00;;;4.37;;
55222;SDS011;41090;48.632;12.428;2023-05-07T03:00:37;4.13;;;3.70;;
55222;SDS011;41090;48.632;12.428;2023-05-07T03:03:02;4.30;;;3.90;;
55222;SDS011;41090;48.632;12.428;2023-05-07T03:05:28;4.40;;;3.83;;
55222;SDS011;41090;48.632;12.428;2023-05-07T03:07:53;4.87;;;3.80;;
55222;SDS011;41090;48.632;12.428;2023-05-07T03:10:18;4.43;;;3.60;;
55222;SDS011;41090;48.632;12.428;2023-05-07T03:12:44;3.90;;;3.50;;
55222;SDS011;41090;48.632;12.428;2023-05-07T03:15:09;4.60;;;3.40;;
55222;SDS011;41090;48.632;12.428;2023-05-07T03:17:35;5.07;;;3.43;;
55222;SDS011;41090;48.632;12.428;2023-05-07T03:20:04;6.27;;;3.53;;
55222;SDS011;41090;48.632;12.428;2023-05-07T03:22:29;4.67;;;3.60;;
55222;SDS011;41090;48.632;12.428;2023-05-07T03:24:54;3.87;;;3.37;;
55222;SDS011;41090;48.632;12.428;2023-05-07T03:27:20;4.73;;;3.80;;
55222;SDS011;41090;48.632;12.428;2023-05-07T03:29:45;4.73;;;3.83;;
55222;SDS011;41090;48.632;12.428;2023-05-07T03:32:10;3.80;;;3.47;;
55222;SDS011;41090;48.632;12.428;2023-05-07T03:34:35;3.37;;;3.17;;
55222;SDS011;41090;48.632;12.428;2023-05-07T03:37:01;3.80;;;3.50;;
55222;SDS011;41090;48.632;12.428;2023-05-07T03:39:26;4.77;;;3.50;;
55222;SDS011;41090;48.632;12.428;2023-05-07T03:41:52;3.53;;;3.23;;
55222;SDS011;41090;48.632;12.428;2023-05-07T03:44:17;3.93;;;3.63;;
55222;SDS011;41090;48.632;12.428;2023-05-07T03:46:42;4.17;;;3.40;;
55222;SDS011;41090;48.632;12.428;2023-05-07T03:49:08;4.20;;;3.80;;
55222;SDS011;41090;48.632;12.428;2023-05-07T03:51:33;5.60;;;4.03;;
55222;SDS011;41090;48.632;12.428;2023-05-07T03:53:58;6.37;;;4.80;;
55222;SDS011;41090;48.632;12.428;2023-05-07T03:56:23;4.97;;;4.37;;
55222;SDS011;41090;48.632;12.428;2023-05-07T03:58:51;5.07;;;4.03;;
55222;SDS011;41090;48.632;12.428;2023-05-07T04:01:16;6.07;;;4.07;;
55222;SDS011;41090;48.632;12.428;2023-05-07T04:03:42;4.57;;;4.03;;
55222;SDS011;41090;48.632;12.428;2023-05-07T04:06:07;4.10;;;3.80;;
55222;SDS011;41090;48.632;12.428;2023-05-07T04:08:32;4.10;;;3.80;;
55222;SDS011;41090;48.632;12.428;2023-05-07T04:10:58;4.37;;;3.97;;
55222;SDS011;41090;48.632;12.428;2023-05-07T04:13:23;4.47;;;4.07;;
55222;SDS011;41090;48.632;12.428;2023-05-07T04:15:48;3.80;;;3.50;;
55222;SDS011;41090;48.632;12.428;2023-05-07T04:18:14;4.20;;;3.83;;
55222;SDS011;41090;48.632;12.428;2023-05-07T04:20:39;3.80;;;3.50;;
55222;SDS011;41090;48.632;12.428;2023-05-07T04:23:05;4.33;;;3.93;;
55222;SDS011;41090;48.632;12.428;2023-05-07T04:25:30;4.97;;;3.80;;
55222;SDS011;41090;48.632;12.428;2023-05-07T04:27:55;6.57;;;3.97;;
55222;SDS011;41090;48.632;12.428;2023-05-07T04:30:20;4.80;;;4.00;;
55222;SDS011;41090;48.632;12.428;2023-05-07T04:32:48;4.13;;;3.73;;
55222;SDS011;41090;48.632;12.428;2023-05-07T04:35:13;4.80;;;4.10;;
55222;SDS011;41090;48.632;12.428;2023-05-07T04:37:39;4.53;;;4.13;;
55222;SDS011;41090;48.632;12.428;2023-05-07T04:40:05;4.60;;;4.20;;
55222;SDS011;41090;48.632;12.428;2023-05-07T04:42:30;4.77;;;3.97;;
55222;SDS011;41090;48.632;12.428;2023-05-07T04:44:57;4.27;;;3.87;;
55222;SDS011;41090;48.632;12.428;2023-05-07T04:47:22;4.10;;;3.80;;
55222;SDS011;41090;48.632;12.428;2023-05-07T04:49:48;6.50;;;4.00;;
55222;SDS011;41090;48.632;12.428;2023-05-07T04:52:14;6.37;;;4.53;;
55222;SDS011;41090;48.632;12.428;2023-05-07T04:54:40;4.87;;;4.43;;
55222;SDS011;41090;48.632;12.428;2023-05-07T04:57:05;4.63;;;3.90;;
55222;SDS011;41090;48.632;12.428;2023-05-07T04:59:31;4.37;;;3.97;;
55222;SDS011;41090;48.632;12.428;2023-05-07T05:01:56;4.53;;;3.97;;
55222;SDS011;41090;48.632;12.428;2023-05-07T05:04:22;5.13;;;4.63;;
55222;SDS011;41090;48.632;12.428;2023-05-07T05:06:48;5.17;;;4.73;;
55222;SDS011;41090;48.632;12.428;2023-05-07T05:09:14;4.73;;;4.33;;
55222;SDS011;41090;48.632;12.428;2023-05-07T05:11:41;5.13;;;4.53;;
55222;SDS011;41090;48.632;12.428;2023-05-07T05:14:07;6.03;;;5.50;;
55222;SDS011;41090;48.632;12.428;2023-05-07T05:16:32;5.23;;;4.83;;
55222;SDS011;41090;48.632;12.428;2023-05-07T05:18:57;5.03;;;4.63;;
55222;SDS011;41090;48.632;12.428;2023-05-07T05:21:23;5.57;;;5.17;;
55222;SDS011;41090;48.632;12.428;2023-05-07T05:23:48;7.00;;;5.70;;
55222;SDS011;41090;48.632;12.428;2023-05-07T05:26:13;6.53;;;5.93;;
55222;SDS011;41090;48.632;12.428;2023-05-07T05:28:38;8.03;;;6.10;;
55222;SDS011;41090;48.632;12.428;2023-05-07T05:31:04;6.70;;;6.17;;
55222;SDS011;41090;48.632;12.428;2023-05-07T05:33:30;6.93;;;6.23;;
55222;SDS011;41090;48.632;12.428;2023-05-07T05:35:55;8.33;;;6.00;;
55222;SDS011;41090;48.632;12.428;2023-05-07T05:38:20;8.10;;;6.03;;
55222;SDS011;41090;48.632;12.428;2023-05-07T05:40:46;7.00;;;6.40;;
55222;SDS011;41090;48.632;12.428;2023-05-07T05:43:11;6.93;;;6.33;;
55222;SDS011;41090;48.632;12.428;2023-05-07T05:45:36;6.57;;;6.03;;
55222;SDS011;41090;48.632;12.428;2023-05-07T05:48:02;6.27;;;5.77;;
55222;SDS011;41090;48.632;12.428;2023-05-07T05:50:27;7.47;;;6.37;;
55222;SDS011;41090;48.632;12.428;2023-05-07T05:52:52;7.27;;;6.57;;
55222;SDS011;41090;48.632;12.428;2023-05-07T05:55:17;7.70;;;7.00;;
55222;SDS011;41090;48.632;12.428;2023-05-07T05:57:43;7.40;;;6.70;;
55222;SDS011;41090;48.632;12.428;2023-05-07T06:00:08;6.97;;;5.80;;
55222;SDS011;41090;48.632;12.428;2023-05-07T06:02:34;6.93;;;6.20;;
55222;SDS011;41090;48.632;12.428;2023-05-07T06:04:59;7.67;;;6.90;;
55222;SDS011;41090;48.632;12.428;2023-05-07T06:07:25;7.57;;;6.73;;
55222;SDS011;41090;48.632;12.428;2023-05-07T06:09:50;7.20;;;6.50;;
55222;SDS011;41090;48.632;12.428;2023-05-07T06:12:15;7.07;;;6.47;;
55222;SDS011;41090;48.632;12.428;2023-05-07T06:14:42;6.93;;;6.30;;
55222;SDS011;41090;48.632;12.428;2023-05-07T06:17:07;6.60;;;5.73;;
55222;SDS011;41090;48.632;12.428;2023-05-07T06:19:33;6.20;;;5.60;;
55222;SDS011;41090;48.632;12.428;2023-05-07T06:21:58;6.87;;;6.30;;
55222;SDS011;41090;48.632;12.428;2023-05-07T06:24:23;6.90;;;6.27;;
55222;SDS011;41090;48.632;12.428;2023-05-07T06:26:49;7.07;;;6.37;;
55222;SDS011;41090;48.632;12.428;2023-05-07T06:29:14;5.90;;;5.40;;
55222;SDS011;41090;48.632;12.428;2023-05-07T06:31:42;7.07;;;5.63;;
55222;SDS011;41090;48.632;12.428;2023-05-07T06:34:07;6.73;;;6.13;;
55222;SDS011;41090;48.632;12.428;2023-05-07T06:36:32;6.70;;;6.10;;
55222;SDS011;41090;48.632;12.428;2023-05-07T06:38:57;7.27;;;5.10;;
55222;SDS011;41090;48.632;12.428;2023-05-07T06:41:23;6.53;;;5.73;;
55222;SDS011;41090;48.632;12.428;2023-05-07T06:43:48;5.40;;;4.90;;
55222;SDS011;41090;48.632;12.428;2023-05-07T06:46:13;5.03;;;4.10;;
55222;SDS011;41090;48.632;12.428;2023-05-07T06:48:41;3.85;;;3.55;;
55222;SDS011;41090;48.632;12.428;2023-05-07T06:51:06;3.47;;;3.17;;
55222;SDS011;41090;48.632;12.428;2023-05-07T06:53:31;3.70;;;3.00;;
55222;SDS011;41090;48.632;12.428;2023-05-07T06:55:56;2.90;;;2.33;;
55222;SDS011;41090;48.632;12.428;2023-05-07T06:58:22;3.35;;;2.97;;
55222;SDS011;41090;48.632;12.428;2023-05-07T07:00:47;3.50;;;3.20;;
55222;SDS011;41090;48.632;12.428;2023-05-07T07:03:12;3.60;;;2.90;;
55222;SDS011;41090;48.632;12.428;2023-05-07T07:05:40;3.03;;;2.80;;
55222;SDS011;41090;48.632;12.428;2023-05-07T07:08:05;2.90;;;2.60;;
55222;SDS011;41090;48.632;12.428;2023-05-07T07:10:31;2.88;;;2.65;;
55222;SDS011;41090;48.632;12.428;2023-05-07T07:12:57;3.15;;;2.85;;
55222;SDS011;41090;48.632;12.428;2023-05-07T07:15:23;3.13;;;2.70;;
55222;SDS011;41090;48.632;12.428;2023-05-07T07:17:50;2.92;;;2.72;;
55222;SDS011;41090;48.632;12.428;2023-05-07T07:20:15;4.85;;;3.13;;
55222;SDS011;41090;48.632;12.428;2023-05-07T07:22:40;3.55;;;2.80;;
55222;SDS011;41090;48.632;12.428;2023-05-07T07:25:05;4.18;;;2.75;;
55222;SDS011;41090;48.632;12.428;2023-05-07T07:27:31;3.60;;;2.70;;
55222;SDS011;41090;48.632;12.428;2023-05-07T07:29:56;3.90;;;3.10;;
55222;SDS011;41090;48.632;12.428;2023-05-07T07:32:21;3.17;;;2.88;;
55222;SDS011;41090;48.632;12.428;2023-05-07T07:34:46;3.33;;;2.85;;
55222;SDS011;41090;48.632;12.428;2023-05-07T07:37:12;3.17;;;2.90;;
55222;SDS011;41090;48.632;12.428;2023-05-07T07:39:37;3.25;;;2.95;;
55222;SDS011;41090;48.632;12.428;2023-05-07T07:42:02;4.47;;;3.40;;
55222;SDS011;41090;48.632;12.428;2023-05-07T07:44:28;3.30;;;3.00;;
55222;SDS011;41090;48.632;12.428;2023-05-07T07:46:53;3.08;;;2.88;;
55222;SDS011;41090;48.632;12.428;2023-05-07T07:49:18;3.90;;;3.60;;
55222;SDS011;41090;48.632;12.428;2023-05-07T07:51:43;3.50;;;3.20;;
55222;SDS011;41090;48.632;12.428;2023-05-07T07:54:09;3.35;;;3.13;;
55222;SDS011;41090;48.632;12.428;2023-05-07T07:56:35;3.60;;;3.30;;
55222;SDS011;41090;48.632;12.428;2023-05-07T07:59:02;3.60;;;3.30;;
55222;SDS011;41090;48.632;12.428;2023-05-07T08:01:29;3.40;;;3.10;;
55222;SDS011;41090;48.632;12.428;2023-05-07T08:03:54;3.10;;;2.80;;
55222;SDS011;41090;48.632;12.428;2023-05-07T08:06:20;3.63;;;3.33;;
55222;SDS011;41090;48.632;12.428;2023-05-07T08:08:45;4.75;;;3.38;;
55222;SDS011;41090;48.632;12.428;2023-05-07T08:11:12;3.70;;;3.40;;
55222;SDS011;41090;48.632;12.428;2023-05-07T08:13:38;3.70;;;3.40;;
55222;SDS011;41090;48.632;12.428;2023-05-07T08:16:03;3.90;;;3.60;;
55222;SDS011;41090;48.632;12.428;2023-05-07T08:18:29;4.25;;;3.65;;
55222;SDS011;41090;48.632;12.428;2023-05-07T08:20:54;3.70;;;3.40;;
55222;SDS011;41090;48.632;12.428;2023-05-07T08:23:19;6.13;;;3.30;;
55222;SDS011;41090;48.632;12.428;2023-05-07T08:25:45;3.60;;;3.03;;
55222;SDS011;41090;48.632;12.428;2023-05-07T08:28:11;4.70;;;3.65;;
55222;SDS011;41090;48.632;12.428;2023-05-07T08:30:36;4.03;;;3.22;;
55222;SDS011;41090;48.632;12.428;2023-05-07T08:33:02;3.47;;;3.28;;
55222;SDS011;41090;48.632;12.428;2023-05-07T08:35:29;3.78;;;3.47;;
55222;SDS011;41090;48.632;12.428;2023-05-07T08:37:55;5.07;;;3.42;;
55222;SDS011;41090;48.632;12.428;2023-05-07T08:40:20;3.58;;;3.28;;
55222;SDS011;41090;48.632;12.428;2023-05-07T08:42:48;3.47;;;3.17;;
55222;SDS011;41090;48.632;12.428;2023-05-07T08:45:13;3.72;;;3.42;;
55222;SDS011;41090;48.632;12.428;2023-05-07T08:47:43;5.20;;;3.13;;
55222;SDS011;41090;48.632;12.428;2023-05-07T08:50:12;3.58;;;3.28;;
55222;SDS011;41090;48.632;12.428;2023-05-07T08:52:39;3.92;;;3.55;;
55222;SDS011;41090;48.632;12.428;2023-05-07T08:55:04;4.35;;;3.58;;
55222;SDS011;41090;48.632;12.428;2023-05-07T08:57:30;3.80;;;3.50;;
55222;SDS011;41090;48.632;12.428;2023-05-07T08:59:56;3.63;;;3.33;;
55222;SDS011;41090;48.632;12.428;2023-05-07T09:02:21;7.13;;;3.35;;
55222;SDS011;41090;48.632;12.428;2023-05-07T09:04:47;3.63;;;3.33;;
55222;SDS011;41090;48.632;12.428;2023-05-07T09:07:12;4.18;;;3.80;;
55222;SDS011;41090;48.632;12.428;2023-05-07T09:09:37;3.78;;;3.47;;
55222;SDS011;41090;48.632;12.428;2023-05-07T09:12:03;3.65;;;3.35;;
55222;SDS011;41090;48.632;12.428;2023-05-07T09:14:29;3.13;;;2.92;;
55222;SDS011;41090;48.632;12.428;2023-05-07T09:16:55;3.58;;;3.28;;
55222;SDS011;41090;48.632;12.428;2023-05-07T09:19:24;3.45;;;3.15;;
55222;SDS011;41090;48.632;12.428;2023-05-07T09:21:49;3.70;;;3.40;;
55222;SDS011;41090;48.632;12.428;2023-05-07T09:24:15;4.40;;;3.75;;
55222;SDS011;41090;48.632;12.428;2023-05-07T09:26:41;3.58;;;3.20;;
55222;SDS011;41090;48.632;12.428;2023-05-07T09:29:07;4.18;;;3.10;;
55222;SDS011;41090;48.632;12.428;2023-05-07T09:31:35;3.67;;;3.38;;
55222;SDS011;41090;48.632;12.428;2023-05-07T09:34:01;3.58;;;3.28;;
55222;SDS011;41090;48.632;12.428;2023-05-07T09:36:26;3.72;;;3.33;;
55222;SDS011;41090;48.632;12.428;2023-05-07T09:38:51;4.07;;;3.03;;
55222;SDS011;41090;48.632;12.428;2023-05-07T09:41:18;4.15;;;3.38;;
55222;SDS011;41090;48.632;12.428;2023-05-07T09:43:43;3.50;;;3.13;;
55222;SDS011;41090;48.632;12.428;2023-05-07T09:46:13;4.22;;;3.85;;
55222;SDS011;41090;48.632;12.428;2023-05-07T09:48:39;3.10;;;2.90;;
55222;SDS011;41090;48.632;12.428;2023-05-07T09:51:28;4.43;;;2.92;;
55222;SDS011;41090;48.632;12.428;2023-05-07T09:53:54;4.07;;;3.33;;
55222;SDS011;41090;48.632;12.428;2023-05-07T09:56:21;5.63;;;3.20;;
55222;SDS011;41090;48.632;12.428;2023-05-07T09:58:46;4.63;;;3.05;;
55222;SDS011;41090;48.632;12.428;2023-05-07T10:01:12;3.42;;;3.13;;
55222;SDS011;41090;48.632;12.428;2023-05-07T10:03:38;3.78;;;3.47;;
55222;SDS011;41090;48.632;12.428;2023-05-07T10:06:04;3.05;;;2.85;;
55222;SDS011;41090;48.632;12.428;2023-05-07T10:08:30;3.60;;;3.30;;
55222;SDS011;41090;48.632;12.428;2023-05-07T10:10:55;3.13;;;2.80;;
55222;SDS011;41090;48.632;12.428;2023-05-07T10:13:21;3.25;;;2.55;;
55222;SDS011;41090;48.632;12.428;2023-05-07T10:15:46;2.92;;;2.50;;
55222;SDS011;41090;48.632;12.428;2023-05-07T10:18:12;3.03;;;2.67;;
55222;SDS011;41090;48.632;12.428;2023-05-07T10:20:38;3.30;;;3.00;;
55222;SDS011;41090;48.632;12.428;2023-05-07T10:23:04;6.95;;;2.60;;
55222;SDS011;41090;48.632;12.428;2023-05-07T10:25:32;4.70;;;2.70;;
55222;SDS011;41090;48.632;12.428;2023-05-07T10:27:59;3.28;;;2.90;;
55222;SDS011;41090;48.632;12.428;2023-05-07T10:30:40;3.28;;;2.80;;
55222;SDS011;41090;48.632;12.428;2023-05-07T10:33:11;3.85;;;2.40;;
55222;SDS011;41090;48.632;12.428;2023-05-07T10:35:39;3.00;;;2.75;;
55222;SDS011;41090;48.632;12.428;2023-05-07T10:38:07;2.97;;;2.67;;
55222;SDS011;41090;48.632;12.428;2023-05-07T10:40:33;3.03;;;2.60;;
55222;SDS011;41090;48.632;12.428;2023-05-07T10:42:59;5.13;;;2.60;;
55222;SDS011;41090;48.632;12.428;2023-05-07T10:45:25;3.15;;;2.67;;
55222;SDS011;41090;48.632;12.428;2023-05-07T10:48:07;2.92;;;2.63;;
55222;SDS011;41090;48.632;12.428;2023-05-07T10:50:35;2.60;;;2.40;;
55222;SDS011;41090;48.632;12.428;2023-05-07T10:55:41;2.38;;;2.17;;
55222;SDS011;41090;48.632;12.428;2023-05-07T11:00:55;3.15;;;2.33;;
55222;SDS011;41090;48.632;12.428;2023-05-07T11:03:21;2.95;;;2.03;;
55222;SDS011;41090;48.632;12.428;2023-05-07T11:05:47;2.78;;;2.10;;
55222;SDS011;41090;48.632;12.428;2023-05-07T11:08:14;3.80;;;2.20;;
55222;SDS011;41090;48.632;12.428;2023-05-07T11:10:52;2.63;;;2.20;;
55222;SDS011;41090;48.632;12.428;2023-05-07T11:13:18;2.65;;;2.15;;
55222;SDS011;41090;48.632;12.428;2023-05-07T11:15:47;2.05;;;1.85;;
55222;SDS011;41090;48.632;12.428;2023-05-07T11:18:17;3.13;;;2.10;;
55222;SDS011;41090;48.632;12.428;2023-05-07T11:26:02;2.67;;;2.00;;
55222;SDS011;41090;48.632;12.428;2023-05-07T11:28:28;2.50;;;2.30;;
55222;SDS011;41090;48.632;12.428;2023-05-07T11:30:53;3.85;;;1.90;;
55222;SDS011;41090;48.632;12.428;2023-05-07T11:33:19;2.75;;;2.10;;
55222;SDS011;41090;48.632;12.428;2023-05-07T11:35:44;2.38;;;2.17;;
55222;SDS011;41090;48.632;12.428;2023-05-07T11:38:10;2.42;;;1.80;;
55222;SDS011;41090;48.632;12.428;2023-05-07T11:40:48;2.55;;;2.00;;
55222;SDS011;41090;48.632;12.428;2023-05-07T11:43:13;1.95;;;1.65;;
55222;SDS011;41090;48.632;12.428;2023-05-07T11:45:38;2.30;;;1.85;;
55222;SDS011;41090;48.632;12.428;2023-05-07T11:48:04;2.00;;;1.80;;
55222;SDS011;41090;48.632;12.428;2023-05-07T11:50:29;2.20;;;2.00;;
55222;SDS011;41090;48.632;12.428;2023-05-07T11:52:55;3.05;;;2.08;;
55222;SDS011;41090;48.632;12.428;2023-05-07T11:55:20;1.77;;;1.53;;
55222;SDS011;41090;48.632;12.428;2023-05-07T11:57:46;2.63;;;1.90;;
55222;SDS011;41090;48.632;12.428;2023-05-07T12:00:12;2.15;;;1.90;;
55222;SDS011;41090;48.632;12.428;2023-05-07T12:02:40;2.78;;;1.92;;
55222;SDS011;41090;48.632;12.428;2023-05-07T12:05:07;2.40;;;1.77;;
55222;SDS011;41090;48.632;12.428;2023-05-07T12:07:34;2.17;;;1.98;;
55222;SDS011;41090;48.632;12.428;2023-05-07T12:09:59;2.78;;;1.77;;
55222;SDS011;41090;48.632;12.428;2023-05-07T12:12:28;2.50;;;1.98;;
55222;SDS011;41090;48.632;12.428;2023-05-07T12:14:54;2.65;;;1.70;;
55222;SDS011;41090;48.632;12.428;2023-05-07T12:17:20;2.58;;;1.90;;
55222;SDS011;41090;48.632;12.428;2023-05-07T12:19:46;2.25;;;1.65;;
55222;SDS011;41090;48.632;12.428;2023-05-07T12:22:12;3.47;;;2.00;;
55222;SDS011;41090;48.632;12.428;2023-05-07T12:27:08;3.50;;;1.80;;
55222;SDS011;41090;48.632;12.428;2023-05-07T12:29:34;2.03;;;1.80;;
55222;SDS011;41090;48.632;12.428;2023-05-07T12:31:59;2.10;;;1.90;;
55222;SDS011;41090;48.632;12.428;2023-05-07T12:34:24;2.10;;;1.88;;
55222;SDS011;41090;48.632;12.428;2023-05-07T12:36:50;2.40;;;1.83;;
55222;SDS011;41090;48.632;12.428;2023-05-07T12:39:15;1.98;;;1.63;;
55222;SDS011;41090;48.632;12.428;2023-05-07T12:41:57;3.47;;;1.98;;
55222;SDS011;41090;48.632;12.428;2023-05-07T12:44:24;2.25;;;1.88;;
55222;SDS011;41090;48.632;12.428;2023-05-07T12:46:49;2.15;;;1.70;;
55222;SDS011;41090;48.632;12.428;2023-05-07T12:49:14;2.22;;;1.77;;
55222;SDS011;41090;48.632;12.428;2023-05-07T12:51:41;2.28;;;1.85;;
55222;SDS011;41090;48.632;12.428;2023-05-07T12:54:06;3.20;;;1.80;;
55222;SDS011;41090;48.632;12.428;2023-05-07T12:56:31;1.88;;;1.60;;
55222;SDS011;41090;48.632;12.428;2023-05-07T12:58:57;2.10;;;1.88;;
55222;SDS011;41090;48.632;12.428;2023-05-07T13:01:28;2.65;;;1.60;;
55222;SDS011;41090;48.632;12.428;2023-05-07T13:03:53;2.22;;;1.65;;
55222;SDS011;41090;48.632;12.428;2023-05-07T13:06:18;1.88;;;1.70;;
55222;SDS011;41090;48.632;12.428;2023-05-07T13:08:44;2.42;;;1.70;;
55222;SDS011;41090;48.632;12.428;2023-05-07T13:11:09;2.70;;;1.67;;
55222;SDS011;41090;48.632;12.428;2023-05-07T13:13:35;1.92;;;1.60;;
55222;SDS011;41090;48.632;12.428;2023-05-07T13:16:01;1.88;;;1.67;;
55222;SDS011;41090;48.632;12.428;2023-05-07T13:18:27;2.20;;;1.80;;
55222;SDS011;41090;48.632;12.428;2023-05-07T13:20:53;3.08;;;1.70;;
55222;SDS011;41090;48.632;12.428;2023-05-07T13:23:18;3.38;;;1.85;;
55222;SDS011;41090;48.632;12.428;2023-05-07T13:25:43;1.85;;;1.60;;
55222;SDS011;41090;48.632;12.428;2023-05-07T13:28:09;2.13;;;1.75;;
55222;SDS011;41090;48.632;12.428;2023-05-07T13:30:34;1.80;;;1.60;;
55222;SDS011;41090;48.632;12.428;2023-05-07T13:33:01;2.75;;;1.98;;
55222;SDS011;41090;48.632;12.428;2023-05-07T13:35:26;2.10;;;1.75;;
55222;SDS011;41090;48.632;12.428;2023-05-07T13:37:51;2.00;;;1.80;;
55222;SDS011;41090;48.632;12.428;2023-05-07T13:40:17;1.75;;;1.65;;
55222;SDS011;41090;48.632;12.428;2023-05-07T13:42:42;2.03;;;1.77;;
55222;SDS011;41090;48.632;12.428;2023-05-07T13:45:08;2.38;;;1.40;;
55222;SDS011;41090;48.632;12.428;2023-05-07T13:47:33;1.98;;;1.50;;
55222;SDS011;41090;48.632;12.428;2023-05-07T13:49:58;1.63;;;1.45;;
55222;SDS011;41090;48.632;12.428;2023-05-07T13:52:24;1.50;;;1.40;;
55222;SDS011;41090;48.632;12.428;2023-05-07T13:54:49;3.17;;;1.48;;
55222;SDS011;41090;48.632;12.428;2023-05-07T13:57:14;1.60;;;1.50;;
55222;SDS011;41090;48.632;12.428;2023-05-07T13:59:40;1.88;;;1.63;;
55222;SDS011;41090;48.632;12.428;2023-05-07T14:02:05;1.90;;;1.70;;
55222;SDS011;41090;48.632;12.428;2023-05-07T14:04:31;2.40;;;1.75;;
55222;SDS011;41090;48.632;12.428;2023-05-07T14:06:56;1.70;;;1.60;;
55222;SDS011;41090;48.632;12.428;2023-05-07T14:09:21;1.65;;;1.55;;
55222;SDS011;41090;48.632;12.428;2023-05-07T14:11:46;1.77;;;1.67;;
55222;SDS011;41090;48.632;12.428;2023-05-07T14:14:16;2.08;;;1.80;;
55222;SDS011;41090;48.632;12.428;2023-05-07T14:16:41;1.92;;;1.70;;
55222;SDS011;41090;48.632;12.428;2023-05-07T14:19:06;2.00;;;1.70;;
55222;SDS011;41090;48.632;12.428;2023-05-07T14:21:31;2.15;;;1.88;;
55222;SDS011;41090;48.632;12.428;2023-05-07T14:23:57;1.92;;;1.52;;
55222;SDS011;41090;48.632;12.428;2023-05-07T14:26:22;2.00;;;1.80;;
55222;SDS011;41090;48.632;12.428;2023-05-07T14:28:48;2.35;;;1.70;;
55222;SDS011;41090;48.632;12.428;2023-05-07T14:31:13;1.92;;;1.80;;
55222;SDS011;41090;48.632;12.428;2023-05-07T14:33:38;2.13;;;2.03;;
55222;SDS011;41090;48.632;12.428;2023-05-07T14:36:04;4.05;;;1.90;;
55222;SDS011;41090;48.632;12.428;2023-05-07T14:38:29;2.10;;;2.00;;
55222;SDS011;41090;48.632;12.428;2023-05-07T14:40:55;2.35;;;2.15;;
55222;SDS011;41090;48.632;12.428;2023-05-07T14:43:21;2.17;;;2.00;;
55222;SDS011;41090;48.632;12.428;2023-05-07T14:45:46;2.00;;;1.80;;
55222;SDS011;41090;48.632;12.428;2023-05-07T14:48:12;2.30;;;2.08;;
55222;SDS011;41090;48.632;12.428;2023-05-07T14:50:40;3.92;;;2.10;;